Shepherdstown, Pennsylvania
Current Conditions -  °F | °C
As of 10:56 AM on Sunday 21 Dec 2014 (Local Time) from KCXY Reporting Station
Overcast Overcast  
Wind Chill: 27°   Ceiling: 2800
Heat Index: 33°   Visibility: 10mi
Dew Point: 21°   Wind: 7mph
Humidity: 61%   Direction: 330°NNW
Pressure: 30.35"   Gusts: NA
Location:  40.208°N, 77.0098°W
Report Text: KCXY 211556Z 33006KT 10SM OVC028 01/M06 A3035 RMK AO2 SLP284 T00061061
Loading
Personal Weather Stations






























Interactive Weather Map New forecast layout! Learn more

10-Day Weather Forecast

Advertisements
Track Severe Weather on mobile